sensor_id;sensor_type;location;lat;lon;timestamp;pressure;altitude;pressure_sealevel;temperature;humidity
49072;BME280;52656;52.610;10.236;2023-05-20T00:00:05;102131.56;;;12.11;48.57
49072;BME280;52656;52.610;10.236;2023-05-20T00:02:31;102131.72;;;12.05;48.70
49072;BME280;52656;52.610;10.236;2023-05-20T00:04:56;102119.44;;;12.01;48.12
49072;BME280;52656;52.610;10.236;2023-05-20T00:07:21;102125.81;;;11.92;48.84
49072;BME280;52656;52.610;10.236;2023-05-20T00:09:47;102120.56;;;11.91;48.51
49072;BME280;52656;52.610;10.236;2023-05-20T00:12:12;102122.41;;;11.87;48.45
49072;BME280;52656;52.610;10.236;2023-05-20T00:14:37;102119.69;;;11.89;48.88
49072;BME280;52656;52.610;10.236;2023-05-20T00:17:03;102120.63;;;11.88;48.62
49072;BME280;52656;52.610;10.236;2023-05-20T00:19:28;102117.31;;;11.78;48.64
49072;BME280;52656;52.610;10.236;2023-05-20T00:21:53;102120.16;;;11.69;48.56
49072;BME280;52656;52.610;10.236;2023-05-20T00:24:21;102112.16;;;11.72;48.54
49072;BME280;52656;52.610;10.236;2023-05-20T00:26:46;102108.59;;;11.73;48.93
49072;BME280;52656;52.610;10.236;2023-05-20T00:29:12;102114.25;;;11.56;48.75
49072;BME280;52656;52.610;10.236;2023-05-20T00:31:37;102107.81;;;11.66;48.55
49072;BME280;52656;52.610;10.236;2023-05-20T00:34:02;102116.09;;;11.53;49.11
49072;BME280;52656;52.610;10.236;2023-05-20T00:36:28;102111.81;;;11.47;49.28
49072;BME280;52656;52.610;10.236;2023-05-20T00:38:53;102109.06;;;11.52;48.62
49072;BME280;52656;52.610;10.236;2023-05-20T00:41:18;102115.13;;;11.57;48.29
49072;BME280;52656;52.610;10.236;2023-05-20T00:43:44;102119.63;;;11.53;49.02
49072;BME280;52656;52.610;10.236;2023-05-20T00:46:09;102111.72;;;11.52;49.24
49072;BME280;52656;52.610;10.236;2023-05-20T00:48:41;102110.06;;;11.46;49.09
49072;BME280;52656;52.610;10.236;2023-05-20T00:51:07;102119.72;;;11.49;49.08
49072;BME280;52656;52.610;10.236;2023-05-20T00:53:33;102114.03;;;11.27;49.71
49072;BME280;52656;52.610;10.236;2023-05-20T00:55:59;102110.16;;;11.41;49.25
49072;BME280;52656;52.610;10.236;2023-05-20T00:58:24;102108.53;;;11.36;49.32
49072;BME280;52656;52.610;10.236;2023-05-20T01:00:50;102111.06;;;11.40;49.40
49072;BME280;52656;52.610;10.236;2023-05-20T01:03:16;102111.09;;;11.39;49.56
49072;BME280;52656;52.610;10.236;2023-05-20T01:05:41;102111.28;;;11.30;49.78
49072;BME280;52656;52.610;10.236;2023-05-20T01:08:07;102117.38;;;11.35;49.80
49072;BME280;52656;52.610;10.236;2023-05-20T01:10:32;102113.06;;;11.31;49.49
49072;BME280;52656;52.610;10.236;2023-05-20T01:13:03;102116.50;;;11.34;49.41
49072;BME280;52656;52.610;10.236;2023-05-20T01:15:30;102108.31;;;11.45;49.74
49072;BME280;52656;52.610;10.236;2023-05-20T01:17:58;102110.88;;;11.48;49.02
49072;BME280;52656;52.610;10.236;2023-05-20T01:20:27;102119.81;;;11.44;49.51
49072;BME280;52656;52.610;10.236;2023-05-20T01:22:55;102112.16;;;11.32;49.65
49072;BME280;52656;52.610;10.236;2023-05-20T01:25:20;102108.78;;;11.20;50.11
49072;BME280;52656;52.610;10.236;2023-05-20T01:27:47;102106.75;;;11.35;49.91
49072;BME280;52656;52.610;10.236;2023-05-20T01:30:13;102107.81;;;11.28;50.32
49072;BME280;52656;52.610;10.236;2023-05-20T01:32:48;102104.59;;;11.10;50.52
49072;BME280;52656;52.610;10.236;2023-05-20T01:35:16;102101.88;;;11.13;50.73
49072;BME280;52656;52.610;10.236;2023-05-20T01:37:42;102099.03;;;11.24;50.76
49072;BME280;52656;52.610;10.236;2023-05-20T01:40:09;102095.91;;;11.04;50.70
49072;BME280;52656;52.610;10.236;2023-05-20T01:42:36;102095.13;;;10.97;50.94
49072;BME280;52656;52.610;10.236;2023-05-20T01:45:03;102088.88;;;11.01;50.90
49072;BME280;52656;52.610;10.236;2023-05-20T01:47:29;102086.94;;;11.08;50.84
49072;BME280;52656;52.610;10.236;2023-05-20T01:49:55;102084.56;;;10.95;51.28
49072;BME280;52656;52.610;10.236;2023-05-20T01:52:21;102086.50;;;10.87;51.77
49072;BME280;52656;52.610;10.236;2023-05-20T01:54:47;102089.19;;;10.84;52.03
49072;BME280;52656;52.610;10.236;2023-05-20T01:57:19;102095.72;;;10.66;52.19
49072;BME280;52656;52.610;10.236;2023-05-20T01:59:45;102087.50;;;10.82;51.96
49072;BME280;52656;52.610;10.236;2023-05-20T02:02:10;102083.31;;;10.67;52.35
49072;BME280;52656;52.610;10.236;2023-05-20T02:04:35;102079.94;;;10.60;53.06
49072;BME280;52656;52.610;10.236;2023-05-20T02:07:01;102079.03;;;10.63;53.21
49072;BME280;52656;52.610;10.236;2023-05-20T02:09:27;102080.75;;;10.62;52.65
49072;BME280;52656;52.610;10.236;2023-05-20T02:11:52;102073.72;;;10.63;52.91
49072;BME280;52656;52.610;10.236;2023-05-20T02:14:18;102075.53;;;10.59;52.91
49072;BME280;52656;52.610;10.236;2023-05-20T02:16:43;102088.16;;;10.45;53.48
49072;BME280;52656;52.610;10.236;2023-05-20T02:19:09;102076.59;;;10.51;53.28
49072;BME280;52656;52.610;10.236;2023-05-20T02:21:40;102082.84;;;10.47;53.48
49072;BME280;52656;52.610;10.236;2023-05-20T02:24:06;102075.63;;;10.55;53.55
49072;BME280;52656;52.610;10.236;2023-05-20T02:26:32;102073.97;;;10.49;53.52
49072;BME280;52656;52.610;10.236;2023-05-20T02:28:58;102073.19;;;10.42;53.87
49072;BME280;52656;52.610;10.236;2023-05-20T02:31:23;102076.91;;;10.32;54.45
49072;BME280;52656;52.610;10.236;2023-05-20T02:33:48;102081.56;;;10.16;54.96
49072;BME280;52656;52.610;10.236;2023-05-20T02:36:14;102083.19;;;10.27;54.38
49072;BME280;52656;52.610;10.236;2023-05-20T02:38:39;102086.84;;;10.19;55.02
49072;BME280;52656;52.610;10.236;2023-05-20T02:41:04;102078.97;;;10.15;55.32
49072;BME280;52656;52.610;10.236;2023-05-20T02:43:31;102082.28;;;10.26;54.77
49072;BME280;52656;52.610;10.236;2023-05-20T02:45:56;102084.06;;;10.26;55.37
49072;BME280;52656;52.610;10.236;2023-05-20T02:48:22;102083.16;;;10.28;54.77
49072;BME280;52656;52.610;10.236;2023-05-20T02:50:47;102087.50;;;10.32;54.53
49072;BME280;52656;52.610;10.236;2023-05-20T02:53:12;102084.88;;;10.31;55.26
49072;BME280;52656;52.610;10.236;2023-05-20T02:55:39;102087.59;;;10.26;54.98
49072;BME280;52656;52.610;10.236;2023-05-20T02:58:04;102083.91;;;10.35;54.87
49072;BME280;52656;52.610;10.236;2023-05-20T03:00:30;102083.88;;;10.38;55.28
49072;BME280;52656;52.610;10.236;2023-05-20T03:02:56;102090.13;;;10.34;55.08
49072;BME280;52656;52.610;10.236;2023-05-20T03:05:21;102088.16;;;10.45;54.79
49072;BME280;52656;52.610;10.236;2023-05-20T03:07:47;102084.81;;;10.35;55.28
49072;BME280;52656;52.610;10.236;2023-05-20T03:10:13;102079.72;;;10.23;55.68
49072;BME280;52656;52.610;10.236;2023-05-20T03:12:38;102086.88;;;10.16;56.09
49072;BME280;52656;52.610;10.236;2023-05-20T03:15:04;102082.09;;;10.38;55.33
49072;BME280;52656;52.610;10.236;2023-05-20T03:17:30;102084.75;;;10.38;55.50
49072;BME280;52656;52.610;10.236;2023-05-20T03:19:55;102084.00;;;10.30;55.98
49072;BME280;52656;52.610;10.236;2023-05-20T03:22:20;102082.28;;;10.28;56.18
49072;BME280;52656;52.610;10.236;2023-05-20T03:24:46;102081.44;;;10.26;56.34
49072;BME280;52656;52.610;10.236;2023-05-20T03:27:12;102083.03;;;10.34;55.88
49072;BME280;52656;52.610;10.236;2023-05-20T03:29:37;102079.34;;;10.43;55.85
49072;BME280;52656;52.610;10.236;2023-05-20T03:32:03;102084.63;;;10.46;55.90
49072;BME280;52656;52.610;10.236;2023-05-20T03:34:28;102086.22;;;10.53;55.37
49072;BME280;52656;52.610;10.236;2023-05-20T03:36:54;102077.28;;;10.60;55.13
49072;BME280;52656;52.610;10.236;2023-05-20T03:39:21;102085.16;;;10.65;55.02
49072;BME280;52656;52.610;10.236;2023-05-20T03:41:46;102081.84;;;10.54;55.87
49072;BME280;52656;52.610;10.236;2023-05-20T03:44:12;102083.38;;;10.65;55.31
49072;BME280;52656;52.610;10.236;2023-05-20T03:46:37;102090.31;;;10.71;55.19
49072;BME280;52656;52.610;10.236;2023-05-20T03:49:03;102084.22;;;10.67;55.63
49072;BME280;52656;52.610;10.236;2023-05-20T03:51:28;102096.50;;;10.72;55.67
49072;BME280;52656;52.610;10.236;2023-05-20T03:53:54;102097.41;;;10.72;55.72
49072;BME280;52656;52.610;10.236;2023-05-20T03:56:19;102102.56;;;10.78;55.74
49072;BME280;52656;52.610;10.236;2023-05-20T03:58:45;102096.56;;;10.67;55.92
49072;BME280;52656;52.610;10.236;2023-05-20T04:01:10;102092.22;;;10.64;56.08
49072;BME280;52656;52.610;10.236;2023-05-20T04:03:38;102101.78;;;10.72;55.84
49072;BME280;52656;52.610;10.236;2023-05-20T04:06:03;102106.22;;;10.73;55.82
49072;BME280;52656;52.610;10.236;2023-05-20T04:08:29;102107.22;;;10.65;56.02
49072;BME280;52656;52.610;10.236;2023-05-20T04:10:55;102107.38;;;10.56;56.40
49072;BME280;52656;52.610;10.236;2023-05-20T04:13:20;102106.19;;;10.74;55.89
49072;BME280;52656;52.610;10.236;2023-05-20T04:15:46;102103.94;;;10.51;56.73
49072;BME280;52656;52.610;10.236;2023-05-20T04:18:11;102112.47;;;10.68;56.36
49072;BME280;52656;52.610;10.236;2023-05-20T04:20:38;102109.56;;;10.82;56.34
49072;BME280;52656;52.610;10.236;2023-05-20T04:23:05;102107.91;;;10.77;56.10
49072;BME280;52656;52.610;10.236;2023-05-20T04:25:31;102104.63;;;11.09;55.56
49072;BME280;52656;52.610;10.236;2023-05-20T04:27:58;102104.03;;;10.93;56.11
49072;BME280;52656;52.610;10.236;2023-05-20T04:30:23;102108.44;;;10.95;56.45
49072;BME280;52656;52.610;10.236;2023-05-20T04:32:49;102100.09;;;11.12;55.36
49072;BME280;52656;52.610;10.236;2023-05-20T04:35:15;102103.63;;;11.14;55.42
49072;BME280;52656;52.610;10.236;2023-05-20T04:37:40;102101.34;;;11.39;54.83
49072;BME280;52656;52.610;10.236;2023-05-20T04:40:12;102097.88;;;12.47;52.16
49072;BME280;52656;52.610;10.236;2023-05-20T04:42:37;102090.13;;;12.74;51.06
49072;BME280;52656;52.610;10.236;2023-05-20T04:45:03;102091.03;;;13.06;49.79
49072;BME280;52656;52.610;10.236;2023-05-20T04:47:30;102092.63;;;13.72;48.19
49072;BME280;52656;52.610;10.236;2023-05-20T04:49:55;102090.56;;;14.08;47.25
49072;BME280;52656;52.610;10.236;2023-05-20T04:52:23;102092.00;;;14.18;46.52
49072;BME280;52656;52.610;10.236;2023-05-20T04:54:50;102087.03;;;14.59;45.93
49072;BME280;52656;52.610;10.236;2023-05-20T04:57:16;102080.31;;;14.99;45.33
49072;BME280;52656;52.610;10.236;2023-05-20T04:59:41;102082.66;;;15.30;44.25
49072;BME280;52656;52.610;10.236;2023-05-20T05:02:07;102079.63;;;15.17;44.22
49072;BME280;52656;52.610;10.236;2023-05-20T05:04:32;102085.03;;;15.61;44.17
49072;BME280;52656;52.610;10.236;2023-05-20T05:06:57;102081.81;;;15.30;44.38
49072;BME280;52656;52.610;10.236;2023-05-20T05:09:23;102077.78;;;16.31;42.29
49072;BME280;52656;52.610;10.236;2023-05-20T05:11:48;102075.78;;;16.77;41.21
49072;BME280;52656;52.610;10.236;2023-05-20T05:14:13;102072.53;;;17.66;39.62
49072;BME280;52656;52.610;10.236;2023-05-20T05:16:39;102076.25;;;17.44;40.18
49072;BME280;52656;52.610;10.236;2023-05-20T05:19:04;102063.38;;;18.93;37.68
49072;BME280;52656;52.610;10.236;2023-05-20T05:21:30;102070.78;;;18.72;38.08
49072;BME280;52656;52.610;10.236;2023-05-20T05:23:56;102073.16;;;19.27;37.38
49072;BME280;52656;52.610;10.236;2023-05-20T05:26:22;102056.53;;;20.29;35.73
49072;BME280;52656;52.610;10.236;2023-05-20T05:28:47;102061.53;;;20.21;34.86
49072;BME280;52656;52.610;10.236;2023-05-20T05:31:12;102056.78;;;20.55;34.92
49072;BME280;52656;52.610;10.236;2023-05-20T05:33:37;102047.63;;;21.02;34.21
49072;BME280;52656;52.610;10.236;2023-05-20T05:36:03;102059.69;;;20.06;35.98
49072;BME280;52656;52.610;10.236;2023-05-20T05:38:29;102060.47;;;19.62;36.95
49072;BME280;52656;52.610;10.236;2023-05-20T05:40:54;102043.59;;;20.95;35.01
49072;BME280;52656;52.610;10.236;2023-05-20T05:43:20;102057.81;;;19.29;37.08
49072;BME280;52656;52.610;10.236;2023-05-20T05:45:45;102057.97;;;19.10;37.22
49072;BME280;52656;52.610;10.236;2023-05-20T05:48:10;102055.50;;;19.39;37.58
49072;BME280;52656;52.610;10.236;2023-05-20T05:50:36;102057.25;;;19.71;37.02
49072;BME280;52656;52.610;10.236;2023-05-20T05:53:01;102056.22;;;20.64;35.83
49072;BME280;52656;52.610;10.236;2023-05-20T05:55:26;102059.06;;;19.87;36.84
49072;BME280;52656;52.610;10.236;2023-05-20T05:57:51;102053.84;;;19.84;37.14
49072;BME280;52656;52.610;10.236;2023-05-20T06:00:17;102054.03;;;19.65;37.38
49072;BME280;52656;52.610;10.236;2023-05-20T06:02:42;102065.56;;;18.17;40.14
49072;BME280;52656;52.610;10.236;2023-05-20T06:05:07;102061.69;;;18.05;41.08
49072;BME280;52656;52.610;10.236;2023-05-20T06:07:33;102066.59;;;18.32;40.87
49072;BME280;52656;52.610;10.236;2023-05-20T06:09:58;102062.25;;;17.75;41.62
49072;BME280;52656;52.610;10.236;2023-05-20T06:12:23;102066.59;;;18.66;40.14
49072;BME280;52656;52.610;10.236;2023-05-20T06:14:49;102066.81;;;18.10;41.28
49072;BME280;52656;52.610;10.236;2023-05-20T06:17:14;102065.31;;;18.39;40.77
49072;BME280;52656;52.610;10.236;2023-05-20T06:19:39;102052.75;;;19.07;39.76
49072;BME280;52656;52.610;10.236;2023-05-20T06:22:04;102059.50;;;18.48;40.32
49072;BME280;52656;52.610;10.236;2023-05-20T06:24:30;102062.91;;;17.98;41.13
49072;BME280;52656;52.610;10.236;2023-05-20T06:26:55;102058.94;;;18.76;40.28
49072;BME280;52656;52.610;10.236;2023-05-20T06:29:22;102065.41;;;19.54;39.10
49072;BME280;52656;52.610;10.236;2023-05-20T06:31:47;102055.63;;;20.15;38.10
49072;BME280;52656;52.610;10.236;2023-05-20T06:34:13;102059.59;;;20.23;37.99
49072;BME280;52656;52.610;10.236;2023-05-20T06:36:38;102042.81;;;20.93;36.65
49072;BME280;52656;52.610;10.236;2023-05-20T06:39:03;102049.03;;;21.36;35.87
49072;BME280;52656;52.610;10.236;2023-05-20T06:41:30;102042.69;;;22.18;34.48
49072;BME280;52656;52.610;10.236;2023-05-20T06:43:55;102047.72;;;21.56;35.17
49072;BME280;52656;52.610;10.236;2023-05-20T06:46:20;102041.34;;;22.38;34.35
49072;BME280;52656;52.610;10.236;2023-05-20T06:48:46;102034.00;;;24.37;31.48
49072;BME280;52656;52.610;10.236;2023-05-20T06:51:11;102045.72;;;23.65;31.90
49072;BME280;52656;52.610;10.236;2023-05-20T06:53:36;102039.13;;;23.45;32.19
49072;BME280;52656;52.610;10.236;2023-05-20T06:56:01;102022.00;;;26.38;29.05
49072;BME280;52656;52.610;10.236;2023-05-20T06:58:27;102027.56;;;24.95;30.79
49072;BME280;52656;52.610;10.236;2023-05-20T07:00:53;102037.16;;;24.54;30.79
49072;BME280;52656;52.610;10.236;2023-05-20T07:03:18;102033.44;;;23.24;32.26
49072;BME280;52656;52.610;10.236;2023-05-20T07:05:44;102045.59;;;23.43;32.17
49072;BME280;52656;52.610;10.236;2023-05-20T07:08:09;102032.16;;;23.04;33.14
49072;BME280;52656;52.610;10.236;2023-05-20T07:10:35;102023.56;;;23.60;31.95
49072;BME280;52656;52.610;10.236;2023-05-20T07:13:01;102020.34;;;23.31;32.13
49072;BME280;52656;52.610;10.236;2023-05-20T07:15:26;102000.22;;;24.98;30.28
49072;BME280;52656;52.610;10.236;2023-05-20T07:17:51;102013.03;;;26.68;28.00
49072;BME280;52656;52.610;10.236;2023-05-20T07:20:17;102006.34;;;26.30;28.43
49072;BME280;52656;52.610;10.236;2023-05-20T07:22:42;102005.69;;;26.59;27.49
49072;BME280;52656;52.610;10.236;2023-05-20T07:25:08;102012.53;;;25.25;29.21
49072;BME280;52656;52.610;10.236;2023-05-20T07:27:34;102009.22;;;26.50;27.00
49072;BME280;52656;52.610;10.236;2023-05-20T07:29:59;102025.38;;;25.12;29.45
49072;BME280;52656;52.610;10.236;2023-05-20T07:32:25;102016.22;;;24.79;29.69
49072;BME280;52656;52.610;10.236;2023-05-20T07:34:50;102017.84;;;24.81;29.26
49072;BME280;52656;52.610;10.236;2023-05-20T07:37:16;102001.94;;;24.66;30.05
49072;BME280;52656;52.610;10.236;2023-05-20T07:39:42;102009.56;;;25.39;28.75
49072;BME280;52656;52.610;10.236;2023-05-20T07:42:07;102001.84;;;25.55;28.37
49072;BME280;52656;52.610;10.236;2023-05-20T07:44:32;101994.06;;;25.73;28.27
49072;BME280;52656;52.610;10.236;2023-05-20T07:46:58;101993.44;;;24.81;29.32
49072;BME280;52656;52.610;10.236;2023-05-20T07:49:23;101986.91;;;25.72;28.56
49072;BME280;52656;52.610;10.236;2023-05-20T07:51:49;101985.53;;;25.23;28.74
49072;BME280;52656;52.610;10.236;2023-05-20T07:54:14;101979.13;;;25.24;28.87
49072;BME280;52656;52.610;10.236;2023-05-20T07:56:40;101993.81;;;24.88;29.02
49072;BME280;52656;52.610;10.236;2023-05-20T07:59:05;101978.97;;;25.80;27.73
49072;BME280;52656;52.610;10.236;2023-05-20T08:01:30;101988.25;;;25.78;27.77
49072;BME280;52656;52.610;10.236;2023-05-20T08:03:56;101982.19;;;26.89;26.87
49072;BME280;52656;52.610;10.236;2023-05-20T08:06:21;101974.19;;;25.73;27.93
49072;BME280;52656;52.610;10.236;2023-05-20T08:08:48;101972.47;;;27.26;26.47
49072;BME280;52656;52.610;10.236;2023-05-20T08:11:14;101981.56;;;27.85;25.77
49072;BME280;52656;52.610;10.236;2023-05-20T08:13:39;101967.41;;;25.35;27.91
49072;BME280;52656;52.610;10.236;2023-05-20T08:16:05;101979.97;;;22.15;32.54
49072;BME280;52656;52.610;10.236;2023-05-20T08:18:33;101983.00;;;22.74;32.11
49072;BME280;52656;52.610;10.236;2023-05-20T08:20:59;101986.44;;;22.89;32.46
49072;BME280;52656;52.610;10.236;2023-05-20T08:23:24;101974.28;;;26.24;27.94
49072;BME280;52656;52.610;10.236;2023-05-20T08:25:50;101982.94;;;25.76;28.03
49072;BME280;52656;52.610;10.236;2023-05-20T08:28:17;101992.75;;;22.38;32.57
49072;BME280;52656;52.610;10.236;2023-05-20T08:30:42;101981.09;;;23.73;30.38
49072;BME280;52656;52.610;10.236;2023-05-20T08:33:08;101977.63;;;21.56;34.01
49072;BME280;52656;52.610;10.236;2023-05-20T08:35:34;101974.84;;;22.50;33.04
49072;BME280;52656;52.610;10.236;2023-05-20T08:37:59;101977.19;;;20.51;36.53
49072;BME280;52656;52.610;10.236;2023-05-20T08:40:25;101977.50;;;20.89;35.96
49072;BME280;52656;52.610;10.236;2023-05-20T08:42:51;101980.53;;;19.80;37.68
49072;BME280;52656;52.610;10.236;2023-05-20T08:45:18;101975.66;;;19.25;39.07
49072;BME280;52656;52.610;10.236;2023-05-20T08:47:45;101989.19;;;19.23;39.16
49072;BME280;52656;52.610;10.236;2023-05-20T08:50:12;101978.44;;;21.02;36.11
49072;BME280;52656;52.610;10.236;2023-05-20T08:52:42;101962.41;;;24.52;30.74
49072;BME280;52656;52.610;10.236;2023-05-20T08:55:19;101964.03;;;24.08;30.60
49072;BME280;52656;52.610;10.236;2023-05-20T08:57:53;101966.97;;;21.13;35.56
49072;BME280;52656;52.610;10.236;2023-05-20T09:00:20;101965.38;;;20.53;36.66
49072;BME280;52656;52.610;10.236;2023-05-20T09:02:48;101977.41;;;19.58;38.33
49072;BME280;52656;52.610;10.236;2023-05-20T09:05:13;101969.50;;;19.07;39.26
49072;BME280;52656;52.610;10.236;2023-05-20T09:07:39;101965.09;;;19.38;39.22
49072;BME280;52656;52.610;10.236;2023-05-20T09:10:07;101974.00;;;18.91;39.83
49072;BME280;52656;52.610;10.236;2023-05-20T09:12:32;101964.41;;;18.36;41.37
49072;BME280;52656;52.610;10.236;2023-05-20T09:14:58;101977.38;;;18.11;41.90
49072;BME280;52656;52.610;10.236;2023-05-20T09:17:23;101978.56;;;18.22;41.65
49072;BME280;52656;52.610;10.236;2023-05-20T09:19:49;101964.13;;;17.90;42.27
49072;BME280;52656;52.610;10.236;2023-05-20T09:22:22;101959.41;;;17.95;42.43
49072;BME280;52656;52.610;10.236;2023-05-20T09:24:47;101977.81;;;17.31;43.91
49072;BME280;52656;52.610;10.236;2023-05-20T09:27:13;101971.38;;;18.06;42.76
49072;BME280;52656;52.610;10.236;2023-05-20T09:29:38;101962.59;;;17.85;43.14
49072;BME280;52656;52.610;10.236;2023-05-20T09:32:03;101968.91;;;17.47;44.11
49072;BME280;52656;52.610;10.236;2023-05-20T09:34:29;101976.00;;;17.31;44.53
49072;BME280;52656;52.610;10.236;2023-05-20T09:36:57;101979.31;;;16.98;44.65
49072;BME280;52656;52.610;10.236;2023-05-20T09:39:24;101969.59;;;17.34;44.38
49072;BME280;52656;52.610;10.236;2023-05-20T09:41:56;101981.41;;;17.48;44.14
49072;BME280;52656;52.610;10.236;2023-05-20T09:44:27;101967.03;;;17.68;44.12
49072;BME280;52656;52.610;10.236;2023-05-20T09:46:55;101969.50;;;18.08;43.06
49072;BME280;52656;52.610;10.236;2023-05-20T09:49:21;101975.50;;;17.59;44.27
49072;BME280;52656;52.610;10.236;2023-05-20T09:51:48;101982.97;;;17.71;44.11
49072;BME280;52656;52.610;10.236;2023-05-20T09:54:17;101970.94;;;17.61;44.35
49072;BME280;52656;52.610;10.236;2023-05-20T09:56:43;101973.56;;;17.08;45.00
49072;BME280;52656;52.610;10.236;2023-05-20T09:59:08;101960.66;;;17.88;43.77
49072;BME280;52656;52.610;10.236;2023-05-20T10:01:34;101971.31;;;17.54;44.81
49072;BME280;52656;52.610;10.236;2023-05-20T10:03:59;101956.84;;;17.75;44.04
49072;BME280;52656;52.610;10.236;2023-05-20T10:06:37;101963.03;;;17.77;44.07
49072;BME280;52656;52.610;10.236;2023-05-20T10:17:38;101955.91;;;17.93;44.01
49072;BME280;52656;52.610;10.236;2023-05-20T10:20:06;101976.06;;;18.52;42.80
49072;BME280;52656;52.610;10.236;2023-05-20T10:22:35;101960.03;;;18.00;43.28
49072;BME280;52656;52.610;10.236;2023-05-20T10:25:04;101949.66;;;18.27;43.58
49072;BME280;52656;52.610;10.236;2023-05-20T10:30:18;101961.22;;;17.77;43.94
49072;BME280;52656;52.610;10.236;2023-05-20T10:32:56;101960.09;;;18.16;43.74
49072;BME280;52656;52.610;10.236;2023-05-20T10:35:23;101962.72;;;18.00;43.87
49072;BME280;52656;52.610;10.236;2023-05-20T10:37:52;101966.44;;;17.62;44.41
49072;BME280;52656;52.610;10.236;2023-05-20T10:40:19;101964.66;;;18.32;43.74
49072;BME280;52656;52.610;10.236;2023-05-20T10:42:45;101965.88;;;18.09;43.45
49072;BME280;52656;52.610;10.236;2023-05-20T10:45:24;101950.25;;;17.82;44.42
49072;BME280;52656;52.610;10.236;2023-05-20T10:47:53;101951.41;;;18.28;43.33
49072;BME280;52656;52.610;10.236;2023-05-20T10:50:33;101947.88;;;18.11;44.01
49072;BME280;52656;52.610;10.236;2023-05-20T10:53:03;101957.50;;;17.63;44.79
49072;BME280;52656;52.610;10.236;2023-05-20T10:55:39;101940.88;;;18.08;44.13
49072;BME280;52656;52.610;10.236;2023-05-20T10:58:06;101939.09;;;18.24;43.63
49072;BME280;52656;52.610;10.236;2023-05-20T11:00:35;101941.41;;;18.15;43.64
49072;BME280;52656;52.610;10.236;2023-05-20T11:03:01;101932.09;;;19.04;42.47
49072;BME280;52656;52.610;10.236;2023-05-20T11:05:26;101940.03;;;18.41;43.30
49072;BME280;52656;52.610;10.236;2023-05-20T11:08:00;101938.09;;;18.27;43.25
49072;BME280;52656;52.610;10.236;2023-05-20T11:10:26;101924.19;;;18.19;43.62
49072;BME280;52656;52.610;10.236;2023-05-20T11:12:51;101918.69;;;18.22;43.59
49072;BME280;52656;52.610;10.236;2023-05-20T11:15:17;101927.16;;;18.30;43.93
49072;BME280;52656;52.610;10.236;2023-05-20T11:17:56;101936.13;;;18.46;43.90
49072;BME280;52656;52.610;10.236;2023-05-20T11:20:22;101928.66;;;18.53;43.99
49072;BME280;52656;52.610;10.236;2023-05-20T11:22:49;101922.66;;;18.48;43.54
49072;BME280;52656;52.610;10.236;2023-05-20T11:25:16;101926.78;;;18.20;44.53
49072;BME280;52656;52.610;10.236;2023-05-20T11:27:42;101935.34;;;17.94;45.17
49072;BME280;52656;52.610;10.236;2023-05-20T11:30:08;101941.97;;;17.69;45.36
49072;BME280;52656;52.610;10.236;2023-05-20T11:32:35;101925.56;;;18.43;44.39
49072;BME280;52656;52.610;10.236;2023-05-20T11:35:00;101928.34;;;18.42;44.02
49072;BME280;52656;52.610;10.236;2023-05-20T11:37:25;101925.56;;;18.43;44.12
49072;BME280;52656;52.610;10.236;2023-05-20T11:40:04;101930.53;;;18.00;45.30
49072;BME280;52656;52.610;10.236;2023-05-20T11:42:32;101919.31;;;18.27;44.66
49072;BME280;52656;52.610;10.236;2023-05-20T11:44:58;101919.47;;;17.89;45.42
49072;BME280;52656;52.610;10.236;2023-05-20T11:47:24;101911.78;;;17.83;45.49
49072;BME280;52656;52.610;10.236;2023-05-20T11:49:51;101918.88;;;17.67;45.56
49072;BME280;52656;52.610;10.236;2023-05-20T11:52:16;101907.91;;;17.89;45.63
49072;BME280;52656;52.610;10.236;2023-05-20T11:54:42;101915.16;;;16.97;47.44
49072;BME280;52656;52.610;10.236;2023-05-20T11:57:07;101899.31;;;17.65;46.55
49072;BME280;52656;52.610;10.236;2023-05-20T11:59:32;101889.41;;;17.48;46.55
49072;BME280;52656;52.610;10.236;2023-05-20T12:01:58;101895.94;;;17.96;45.64
49072;BME280;52656;52.610;10.236;2023-05-20T12:04:23;101892.50;;;18.43;44.65
49072;BME280;52656;52.610;10.236;2023-05-20T12:06:49;101897.66;;;18.47;43.83
49072;BME280;52656;52.610;10.236;2023-05-20T12:09:14;101891.38;;;18.47;44.45
49072;BME280;52656;52.610;10.236;2023-05-20T12:11:40;101890.94;;;18.39;44.50
49072;BME280;52656;52.610;10.236;2023-05-20T12:14:06;101896.13;;;18.75;43.60
49072;BME280;52656;52.610;10.236;2023-05-20T12:16:33;101894.75;;;19.31;42.50
49072;BME280;52656;52.610;10.236;2023-05-20T12:18:59;101898.50;;;18.48;44.02
49072;BME280;52656;52.610;10.236;2023-05-20T12:21:24;101882.28;;;18.67;44.11
49072;BME280;52656;52.610;10.236;2023-05-20T12:23:50;101873.81;;;18.90;43.42
49072;BME280;52656;52.610;10.236;2023-05-20T12:26:21;101875.69;;;18.88;43.61
49072;BME280;52656;52.610;10.236;2023-05-20T12:28:47;101876.59;;;18.40;44.29
49072;BME280;52656;52.610;10.236;2023-05-20T12:31:12;101869.34;;;18.24;45.25
49072;BME280;52656;52.610;10.236;2023-05-20T12:33:38;101863.94;;;18.91;43.49
49072;BME280;52656;52.610;10.236;2023-05-20T12:36:03;101859.25;;;18.78;44.43
49072;BME280;52656;52.610;10.236;2023-05-20T12:38:28;101859.59;;;18.72;44.07
49072;BME280;52656;52.610;10.236;2023-05-20T12:40:54;101849.09;;;18.52;44.68
49072;BME280;52656;52.610;10.236;2023-05-20T12:43:19;101845.66;;;18.82;44.22
49072;BME280;52656;52.610;10.236;2023-05-20T12:45:44;101843.28;;;18.44;44.45